sensor_id;sensor_type;location;lat;lon;timestamp;temperature;humidity
58413;DHT22;44209;52.952;6.790;2022-12-08T00:01:06;2.90;99.90
58413;DHT22;44209;52.952;6.790;2022-12-08T00:03:33;2.90;99.90
58413;DHT22;44209;52.952;6.790;2022-12-08T00:05:59;2.90;99.90
58413;DHT22;44209;52.952;6.790;2022-12-08T00:08:44;2.90;99.90
58413;DHT22;44209;52.952;6.790;2022-12-08T00:11:29;2.90;99.90
58413;DHT22;44209;52.952;6.790;2022-12-08T00:13:54;2.90;99.90
58413;DHT22;44209;52.952;6.790;2022-12-08T00:16:20;2.90;99.90
58413;DHT22;44209;52.952;6.790;2022-12-08T00:18:46;2.90;99.90
58413;DHT22;44209;52.952;6.790;2022-12-08T00:21:11;2.90;99.90
58413;DHT22;44209;52.952;6.790;2022-12-08T00:23:37;2.90;99.90
58413;DHT22;44209;52.952;6.790;2022-12-08T00:26:04;2.90;99.90
58413;DHT22;44209;52.952;6.790;2022-12-08T00:28:31;2.80;99.90
58413;DHT22;44209;52.952;6.790;2022-12-08T00:30:57;2.80;99.90
58413;DHT22;44209;52.952;6.790;2022-12-08T00:33:23;2.80;99.90
58413;DHT22;44209;52.952;6.790;2022-12-08T00:35:49;2.80;99.90
58413;DHT22;44209;52.952;6.790;2022-12-08T00:38:15;2.80;99.90
58413;DHT22;44209;52.952;6.790;2022-12-08T00:40:45;2.80;99.90
58413;DHT22;44209;52.952;6.790;2022-12-08T00:43:11;2.80;99.90
58413;DHT22;44209;52.952;6.790;2022-12-08T00:45:36;2.80;99.90
58413;DHT22;44209;52.952;6.790;2022-12-08T00:48:02;2.80;99.90
58413;DHT22;44209;52.952;6.790;2022-12-08T00:50:28;2.80;99.90
58413;DHT22;44209;52.952;6.790;2022-12-08T00:52:54;2.80;99.90
58413;DHT22;44209;52.952;6.790;2022-12-08T00:55:19;2.80;99.90
58413;DHT22;44209;52.952;6.790;2022-12-08T00:57:45;2.80;99.90
58413;DHT22;44209;52.952;6.790;2022-12-08T01:00:11;2.90;99.90
58413;DHT22;44209;52.952;6.790;2022-12-08T01:02:37;2.90;99.90
58413;DHT22;44209;52.952;6.790;2022-12-08T01:05:02;2.90;99.90
58413;DHT22;44209;52.952;6.790;2022-12-08T01:07:28;3.00;99.90
58413;DHT22;44209;52.952;6.790;2022-12-08T01:09:54;3.00;99.90
58413;DHT22;44209;52.952;6.790;2022-12-08T01:12:20;3.00;99.90
58413;DHT22;44209;52.952;6.790;2022-12-08T01:14:45;3.00;99.90
58413;DHT22;44209;52.952;6.790;2022-12-08T01:17:11;3.00;99.90
58413;DHT22;44209;52.952;6.790;2022-12-08T01:19:37;3.10;99.90
58413;DHT22;44209;52.952;6.790;2022-12-08T01:22:02;3.10;99.90
58413;DHT22;44209;52.952;6.790;2022-12-08T01:24:28;3.10;99.90
58413;DHT22;44209;52.952;6.790;2022-12-08T01:26:54;3.10;99.90
58413;DHT22;44209;52.952;6.790;2022-12-08T01:29:19;3.10;99.90
58413;DHT22;44209;52.952;6.790;2022-12-08T01:31:45;3.10;99.90
58413;DHT22;44209;52.952;6.790;2022-12-08T01:34:11;3.00;99.90
58413;DHT22;44209;52.952;6.790;2022-12-08T01:36:37;3.10;99.90
58413;DHT22;44209;52.952;6.790;2022-12-08T01:39:09;3.00;99.90
58413;DHT22;44209;52.952;6.790;2022-12-08T01:41:36;3.00;99.90
58413;DHT22;44209;52.952;6.790;2022-12-08T01:46:39;3.00;99.90
58413;DHT22;44209;52.952;6.790;2022-12-08T01:54:27;3.00;99.90
58413;DHT22;44209;52.952;6.790;2022-12-08T01:57:16;3.00;99.90
58413;DHT22;44209;52.952;6.790;2022-12-08T01:59:47;3.00;99.90
58413;DHT22;44209;52.952;6.790;2022-12-08T02:02:13;3.00;99.90
58413;DHT22;44209;52.952;6.790;2022-12-08T02:04:39;3.00;99.90
58413;DHT22;44209;52.952;6.790;2022-12-08T02:07:06;3.00;99.90
58413;DHT22;44209;52.952;6.790;2022-12-08T02:09:32;3.00;99.90
58413;DHT22;44209;52.952;6.790;2022-12-08T02:11:58;3.00;99.90
58413;DHT22;44209;52.952;6.790;2022-12-08T02:14:24;2.90;99.90
58413;DHT22;44209;52.952;6.790;2022-12-08T02:33:48;2.90;99.90
58413;DHT22;44209;52.952;6.790;2022-12-08T02:36:29;2.90;99.90
58413;DHT22;44209;52.952;6.790;2022-12-08T02:39:26;2.90;99.90
58413;DHT22;44209;52.952;6.790;2022-12-08T02:42:01;2.90;99.90
58413;DHT22;44209;52.952;6.790;2022-12-08T02:47:15;2.90;99.90
58413;DHT22;44209;52.952;6.790;2022-12-08T02:49:42;2.90;99.90
58413;DHT22;44209;52.952;6.790;2022-12-08T02:55:02;2.90;99.90
58413;DHT22;44209;52.952;6.790;2022-12-08T03:10:49;2.80;99.90
58413;DHT22;44209;52.952;6.790;2022-12-08T03:13:20;2.80;99.90
58413;DHT22;44209;52.952;6.790;2022-12-08T03:15:49;2.80;99.90
58413;DHT22;44209;52.952;6.790;2022-12-08T03:18:16;2.80;99.90
58413;DHT22;44209;52.952;6.790;2022-12-08T03:20:44;2.80;99.90
58413;DHT22;44209;52.952;6.790;2022-12-08T03:23:13;2.90;99.90
58413;DHT22;44209;52.952;6.790;2022-12-08T03:25:50;2.80;99.90
58413;DHT22;44209;52.952;6.790;2022-12-08T03:28:17;2.90;99.90
58413;DHT22;44209;52.952;6.790;2022-12-08T03:30:45;2.90;99.90
58413;DHT22;44209;52.952;6.790;2022-12-08T03:33:21;2.90;99.90
58413;DHT22;44209;52.952;6.790;2022-12-08T03:35:49;2.90;99.90
58413;DHT22;44209;52.952;6.790;2022-12-08T03:38:16;2.90;99.90
58413;DHT22;44209;52.952;6.790;2022-12-08T03:40:42;2.90;99.90
58413;DHT22;44209;52.952;6.790;2022-12-08T03:43:09;2.90;99.90
58413;DHT22;44209;52.952;6.790;2022-12-08T03:45:35;3.00;99.90
58413;DHT22;44209;52.952;6.790;2022-12-08T03:48:01;3.00;99.90
58413;DHT22;44209;52.952;6.790;2022-12-08T03:50:27;3.00;99.90
58413;DHT22;44209;52.952;6.790;2022-12-08T03:52:52;3.00;99.90
58413;DHT22;44209;52.952;6.790;2022-12-08T03:55:18;3.00;99.90
58413;DHT22;44209;52.952;6.790;2022-12-08T03:57:45;3.00;99.90
58413;DHT22;44209;52.952;6.790;2022-12-08T04:00:14;2.90;99.90
58413;DHT22;44209;52.952;6.790;2022-12-08T04:02:40;3.00;99.90
58413;DHT22;44209;52.952;6.790;2022-12-08T04:05:06;2.90;99.90
58413;DHT22;44209;52.952;6.790;2022-12-08T04:07:31;2.90;99.90
58413;DHT22;44209;52.952;6.790;2022-12-08T04:09:57;2.90;99.90
58413;DHT22;44209;52.952;6.790;2022-12-08T04:12:23;2.90;99.90
58413;DHT22;44209;52.952;6.790;2022-12-08T04:14:48;2.80;99.90
58413;DHT22;44209;52.952;6.790;2022-12-08T04:17:14;2.80;99.90
58413;DHT22;44209;52.952;6.790;2022-12-08T04:19:40;2.80;99.90
58413;DHT22;44209;52.952;6.790;2022-12-08T04:22:06;2.70;99.90
58413;DHT22;44209;52.952;6.790;2022-12-08T04:24:32;2.70;99.90
58413;DHT22;44209;52.952;6.790;2022-12-08T04:26:57;2.70;99.90
58413;DHT22;44209;52.952;6.790;2022-12-08T04:29:23;2.70;99.90
58413;DHT22;44209;52.952;6.790;2022-12-08T04:31:49;2.60;99.90
58413;DHT22;44209;52.952;6.790;2022-12-08T04:34:14;2.60;99.90
58413;DHT22;44209;52.952;6.790;2022-12-08T04:36:40;2.60;99.90
58413;DHT22;44209;52.952;6.790;2022-12-08T04:39:06;2.60;99.90
58413;DHT22;44209;52.952;6.790;2022-12-08T04:41:32;2.60;99.90
58413;DHT22;44209;52.952;6.790;2022-12-08T04:43:57;2.60;99.90
58413;DHT22;44209;52.952;6.790;2022-12-08T04:46:23;2.60;99.90
58413;DHT22;44209;52.952;6.790;2022-12-08T04:48:49;2.60;99.90
58413;DHT22;44209;52.952;6.790;2022-12-08T04:51:18;2.60;99.90
58413;DHT22;44209;52.952;6.790;2022-12-08T04:53:45;2.60;99.90
58413;DHT22;44209;52.952;6.790;2022-12-08T04:56:15;2.60;99.90
58413;DHT22;44209;52.952;6.790;2022-12-08T04:58:41;2.60;99.90
58413;DHT22;44209;52.952;6.790;2022-12-08T05:01:06;2.60;99.90
58413;DHT22;44209;52.952;6.790;2022-12-08T05:03:32;2.60;99.90
58413;DHT22;44209;52.952;6.790;2022-12-08T05:05:59;2.60;99.90
58413;DHT22;44209;52.952;6.790;2022-12-08T05:08:25;2.60;99.90
58413;DHT22;44209;52.952;6.790;2022-12-08T05:10:50;2.70;99.90
58413;DHT22;44209;52.952;6.790;2022-12-08T05:13:16;2.60;99.90
58413;DHT22;44209;52.952;6.790;2022-12-08T05:15:42;2.60;99.90
58413;DHT22;44209;52.952;6.790;2022-12-08T05:18:07;2.60;99.90
58413;DHT22;44209;52.952;6.790;2022-12-08T05:20:33;2.60;99.90
58413;DHT22;44209;52.952;6.790;2022-12-08T05:22:59;2.60;99.90
58413;DHT22;44209;52.952;6.790;2022-12-08T05:25:25;2.60;99.90
58413;DHT22;44209;52.952;6.790;2022-12-08T05:27:51;2.60;99.90
58413;DHT22;44209;52.952;6.790;2022-12-08T05:30:16;2.60;99.90
58413;DHT22;44209;52.952;6.790;2022-12-08T05:32:42;2.60;99.90
58413;DHT22;44209;52.952;6.790;2022-12-08T05:35:08;2.70;99.90
58413;DHT22;44209;52.952;6.790;2022-12-08T05:37:34;2.70;99.90
58413;DHT22;44209;52.952;6.790;2022-12-08T05:40:00;2.70;99.90
58413;DHT22;44209;52.952;6.790;2022-12-08T05:42:25;2.70;99.90
58413;DHT22;44209;52.952;6.790;2022-12-08T05:44:51;2.70;99.90
58413;DHT22;44209;52.952;6.790;2022-12-08T05:47:17;2.70;99.90
58413;DHT22;44209;52.952;6.790;2022-12-08T05:49:43;2.70;99.90
58413;DHT22;44209;52.952;6.790;2022-12-08T05:52:09;2.70;99.90
58413;DHT22;44209;52.952;6.790;2022-12-08T05:54:35;2.70;99.90
58413;DHT22;44209;52.952;6.790;2022-12-08T05:57:00;2.70;99.90
58413;DHT22;44209;52.952;6.790;2022-12-08T05:59:26;2.70;99.90
58413;DHT22;44209;52.952;6.790;2022-12-08T06:01:52;2.70;99.90
58413;DHT22;44209;52.952;6.790;2022-12-08T06:04:17;2.70;99.90
58413;DHT22;44209;52.952;6.790;2022-12-08T06:06:43;2.70;99.90
58413;DHT22;44209;52.952;6.790;2022-12-08T06:09:09;2.70;99.90
58413;DHT22;44209;52.952;6.790;2022-12-08T06:11:34;2.70;99.90
58413;DHT22;44209;52.952;6.790;2022-12-08T06:14:00;2.70;99.90
58413;DHT22;44209;52.952;6.790;2022-12-08T06:16:26;2.80;99.90
58413;DHT22;44209;52.952;6.790;2022-12-08T06:18:53;2.80;99.90
58413;DHT22;44209;52.952;6.790;2022-12-08T06:21:19;2.70;99.90
58413;DHT22;44209;52.952;6.790;2022-12-08T06:23:50;2.70;99.90
58413;DHT22;44209;52.952;6.790;2022-12-08T06:26:17;2.70;99.90
58413;DHT22;44209;52.952;6.790;2022-12-08T06:28:44;2.60;99.90
58413;DHT22;44209;52.952;6.790;2022-12-08T06:31:20;2.60;99.90
58413;DHT22;44209;52.952;6.790;2022-12-08T06:33:47;2.60;99.90
58413;DHT22;44209;52.952;6.790;2022-12-08T06:36:14;2.60;99.90
58413;DHT22;44209;52.952;6.790;2022-12-08T06:38:40;2.60;99.90
58413;DHT22;44209;52.952;6.790;2022-12-08T06:41:06;2.70;99.90
58413;DHT22;44209;52.952;6.790;2022-12-08T06:43:32;2.60;99.90
58413;DHT22;44209;52.952;6.790;2022-12-08T06:45:58;2.70;99.90
58413;DHT22;44209;52.952;6.790;2022-12-08T06:48:24;2.70;99.90
58413;DHT22;44209;52.952;6.790;2022-12-08T06:50:50;2.70;99.90
58413;DHT22;44209;52.952;6.790;2022-12-08T06:53:16;2.70;99.90
58413;DHT22;44209;52.952;6.790;2022-12-08T06:55:47;2.70;99.90
58413;DHT22;44209;52.952;6.790;2022-12-08T06:58:13;2.70;99.90
58413;DHT22;44209;52.952;6.790;2022-12-08T07:00:40;2.70;99.90
58413;DHT22;44209;52.952;6.790;2022-12-08T07:03:07;2.60;99.90
58413;DHT22;44209;52.952;6.790;2022-12-08T07:05:34;2.70;99.90
58413;DHT22;44209;52.952;6.790;2022-12-08T07:08:00;2.60;99.90
58413;DHT22;44209;52.952;6.790;2022-12-08T07:10:26;2.60;99.90
58413;DHT22;44209;52.952;6.790;2022-12-08T07:12:52;2.60;99.90
58413;DHT22;44209;52.952;6.790;2022-12-08T07:15:18;2.60;99.90
58413;DHT22;44209;52.952;6.790;2022-12-08T07:17:44;2.60;99.90
58413;DHT22;44209;52.952;6.790;2022-12-08T07:20:09;2.60;99.90
58413;DHT22;44209;52.952;6.790;2022-12-08T07:22:35;2.60;99.90
58413;DHT22;44209;52.952;6.790;2022-12-08T07:25:01;2.60;99.90
58413;DHT22;44209;52.952;6.790;2022-12-08T07:27:27;2.70;99.90
58413;DHT22;44209;52.952;6.790;2022-12-08T07:29:53;2.70;99.90
58413;DHT22;44209;52.952;6.790;2022-12-08T07:32:18;2.70;99.90
58413;DHT22;44209;52.952;6.790;2022-12-08T07:34:44;2.70;99.90
58413;DHT22;44209;52.952;6.790;2022-12-08T07:37:10;2.70;99.90
58413;DHT22;44209;52.952;6.790;2022-12-08T07:39:35;2.70;99.90
58413;DHT22;44209;52.952;6.790;2022-12-08T07:42:01;2.70;99.90
58413;DHT22;44209;52.952;6.790;2022-12-08T07:44:27;2.70;99.90
58413;DHT22;44209;52.952;6.790;2022-12-08T07:46:53;2.70;99.90
58413;DHT22;44209;52.952;6.790;2022-12-08T07:49:18;2.70;99.90
58413;DHT22;44209;52.952;6.790;2022-12-08T07:51:44;2.70;99.90
58413;DHT22;44209;52.952;6.790;2022-12-08T07:54:13;2.70;99.90
58413;DHT22;44209;52.952;6.790;2022-12-08T07:56:38;2.70;99.90
58413;DHT22;44209;52.952;6.790;2022-12-08T07:59:04;2.70;99.90
58413;DHT22;44209;52.952;6.790;2022-12-08T08:01:32;2.70;99.90
58413;DHT22;44209;52.952;6.790;2022-12-08T08:04:00;2.70;99.90
58413;DHT22;44209;52.952;6.790;2022-12-08T08:06:26;2.70;99.90
58413;DHT22;44209;52.952;6.790;2022-12-08T08:08:53;2.60;99.90
58413;DHT22;44209;52.952;6.790;2022-12-08T08:11:18;2.60;99.90
58413;DHT22;44209;52.952;6.790;2022-12-08T08:13:44;2.60;99.90
58413;DHT22;44209;52.952;6.790;2022-12-08T08:16:11;2.60;99.90
58413;DHT22;44209;52.952;6.790;2022-12-08T08:18:38;2.50;99.90
58413;DHT22;44209;52.952;6.790;2022-12-08T08:21:04;2.50;99.90
58413;DHT22;44209;52.952;6.790;2022-12-08T08:23:30;2.50;99.90
58413;DHT22;44209;52.952;6.790;2022-12-08T08:26:01;2.50;99.90
58413;DHT22;44209;52.952;6.790;2022-12-08T08:28:27;2.40;99.90
58413;DHT22;44209;52.952;6.790;2022-12-08T08:30:53;2.40;99.90
58413;DHT22;44209;52.952;6.790;2022-12-08T08:33:19;2.40;99.90
58413;DHT22;44209;52.952;6.790;2022-12-08T08:35:46;2.40;99.90
58413;DHT22;44209;52.952;6.790;2022-12-08T08:38:11;2.40;99.90
58413;DHT22;44209;52.952;6.790;2022-12-08T08:40:37;2.40;99.90
58413;DHT22;44209;52.952;6.790;2022-12-08T08:43:04;2.40;99.90
58413;DHT22;44209;52.952;6.790;2022-12-08T08:45:31;2.40;99.90
58413;DHT22;44209;52.952;6.790;2022-12-08T08:47:57;2.40;99.90
58413;DHT22;44209;52.952;6.790;2022-12-08T08:50:22;2.30;99.90
58413;DHT22;44209;52.952;6.790;2022-12-08T08:52:48;2.30;99.90
58413;DHT22;44209;52.952;6.790;2022-12-08T08:55:15;2.30;99.90
58413;DHT22;44209;52.952;6.790;2022-12-08T08:57:40;2.30;99.90
58413;DHT22;44209;52.952;6.790;2022-12-08T09:00:07;2.30;99.90
58413;DHT22;44209;52.952;6.790;2022-12-08T09:02:35;2.30;99.90
58413;DHT22;44209;52.952;6.790;2022-12-08T09:05:02;2.30;99.90
58413;DHT22;44209;52.952;6.790;2022-12-08T09:07:28;2.30;99.90
58413;DHT22;44209;52.952;6.790;2022-12-08T09:09:53;2.30;99.90
58413;DHT22;44209;52.952;6.790;2022-12-08T09:12:20;2.30;99.90
58413;DHT22;44209;52.952;6.790;2022-12-08T09:14:45;2.30;99.90
58413;DHT22;44209;52.952;6.790;2022-12-08T09:17:11;2.40;99.90
58413;DHT22;44209;52.952;6.790;2022-12-08T09:19:37;2.40;99.90
58413;DHT22;44209;52.952;6.790;2022-12-08T09:22:03;2.40;99.90
58413;DHT22;44209;52.952;6.790;2022-12-08T09:24:29;2.40;99.90
58413;DHT22;44209;52.952;6.790;2022-12-08T09:26:54;2.40;99.90
58413;DHT22;44209;52.952;6.790;2022-12-08T09:29:20;2.40;99.90
58413;DHT22;44209;52.952;6.790;2022-12-08T09:31:46;2.50;99.90
58413;DHT22;44209;52.952;6.790;2022-12-08T09:34:12;2.50;99.90
58413;DHT22;44209;52.952;6.790;2022-12-08T09:36:37;2.50;99.90
58413;DHT22;44209;52.952;6.790;2022-12-08T09:39:03;2.50;99.90
58413;DHT22;44209;52.952;6.790;2022-12-08T09:42:02;2.50;99.90
58413;DHT22;44209;52.952;6.790;2022-12-08T09:47:20;2.50;99.90
58413;DHT22;44209;52.952;6.790;2022-12-08T09:50:21;2.50;99.90
58413;DHT22;44209;52.952;6.790;2022-12-08T09:53:08;2.50;99.90
58413;DHT22;44209;52.952;6.790;2022-12-08T09:55:51;2.40;99.90
58413;DHT22;44209;52.952;6.790;2022-12-08T10:01:15;2.50;99.90
58413;DHT22;44209;52.952;6.790;2022-12-08T10:03:41;2.60;99.90
58413;DHT22;44209;52.952;6.790;2022-12-08T10:09:40;2.70;99.90
58413;DHT22;44209;52.952;6.790;2022-12-08T10:11:47;2.80;99.90
58413;DHT22;44209;52.952;6.790;2022-12-08T10:14:37;2.80;99.90
58413;DHT22;44209;52.952;6.790;2022-12-08T10:19:47;2.90;99.90
58413;DHT22;44209;52.952;6.790;2022-12-08T10:22:25;3.00;99.90
58413;DHT22;44209;52.952;6.790;2022-12-08T10:25:19;3.20;99.90
58413;DHT22;44209;52.952;6.790;2022-12-08T10:27:52;3.30;99.90
58413;DHT22;44209;52.952;6.790;2022-12-08T10:30:19;3.40;99.90
58413;DHT22;44209;52.952;6.790;2022-12-08T10:32:48;3.50;99.90
58413;DHT22;44209;52.952;6.790;2022-12-08T10:35:16;3.50;99.90
58413;DHT22;44209;52.952;6.790;2022-12-08T10:37:57;3.60;99.90
58413;DHT22;44209;52.952;6.790;2022-12-08T10:40:25;3.70;99.90
58413;DHT22;44209;52.952;6.790;2022-12-08T10:42:54;3.80;99.90
58413;DHT22;44209;52.952;6.790;2022-12-08T10:45:28;3.80;99.90
58413;DHT22;44209;52.952;6.790;2022-12-08T10:53:19;4.10;99.90
58413;DHT22;44209;52.952;6.790;2022-12-08T10:55:51;4.10;99.90
58413;DHT22;44209;52.952;6.790;2022-12-08T10:58:30;4.10;99.90
58413;DHT22;44209;52.952;6.790;2022-12-08T11:08:53;4.30;99.90
58413;DHT22;44209;52.952;6.790;2022-12-08T11:11:20;4.30;99.90
58413;DHT22;44209;52.952;6.790;2022-12-08T11:13:49;4.30;99.90
58413;DHT22;44209;52.952;6.790;2022-12-08T11:16:17;4.40;99.90
58413;DHT22;44209;52.952;6.790;2022-12-08T11:18:45;4.40;99.90
58413;DHT22;44209;52.952;6.790;2022-12-08T11:21:18;4.50;99.90
58413;DHT22;44209;52.952;6.790;2022-12-08T11:23:49;4.50;99.90
58413;DHT22;44209;52.952;6.790;2022-12-08T11:26:31;4.60;99.90
58413;DHT22;44209;52.952;6.790;2022-12-08T11:28:59;4.70;99.90
58413;DHT22;44209;52.952;6.790;2022-12-08T11:31:32;4.80;99.90
58413;DHT22;44209;52.952;6.790;2022-12-08T11:34:01;4.90;99.90
58413;DHT22;44209;52.952;6.790;2022-12-08T11:36:29;5.00;99.90
58413;DHT22;44209;52.952;6.790;2022-12-08T11:38:59;5.00;99.90
58413;DHT22;44209;52.952;6.790;2022-12-08T11:41:30;5.10;99.90
58413;DHT22;44209;52.952;6.790;2022-12-08T11:49:12;5.30;99.90
58413;DHT22;44209;52.952;6.790;2022-12-08T11:51:56;5.30;99.90
58413;DHT22;44209;52.952;6.790;2022-12-08T11:54:47;5.40;99.90
58413;DHT22;44209;52.952;6.790;2022-12-08T11:57:15;5.30;99.90
58413;DHT22;44209;52.952;6.790;2022-12-08T11:59:48;5.30;99.90
58413;DHT22;44209;52.952;6.790;2022-12-08T12:18:12;5.00;99.90
58413;DHT22;44209;52.952;6.790;2022-12-08T12:26:06;4.80;99.90
58413;DHT22;44209;52.952;6.790;2022-12-08T12:28:40;4.70;99.90
58413;DHT22;44209;52.952;6.790;2022-12-08T12:31:12;4.60;99.90
58413;DHT22;44209;52.952;6.790;2022-12-08T12:33:41;4.50;99.90
58413;DHT22;44209;52.952;6.790;2022-12-08T12:36:08;4.50;99.90
58413;DHT22;44209;52.952;6.790;2022-12-08T12:38:43;4.40;99.90
58413;DHT22;44209;52.952;6.790;2022-12-08T12:41:55;4.40;99.90
58413;DHT22;44209;52.952;6.790;2022-12-08T12:46:59;4.30;99.90
58413;DHT22;44209;52.952;6.790;2022-12-08T12:57:38;4.60;99.90
58413;DHT22;44209;52.952;6.790;2022-12-08T13:02:38;4.80;99.90
58413;DHT22;44209;52.952;6.790;2022-12-08T13:05:29;4.90;99.90
58413;DHT22;44209;52.952;6.790;2022-12-08T13:08:00;4.90;99.90
58413;DHT22;44209;52.952;6.790;2022-12-08T13:10:34;4.90;99.90
58413;DHT22;44209;52.952;6.790;2022-12-08T13:13:21;4.90;99.90
58413;DHT22;44209;52.952;6.790;2022-12-08T13:15:50;4.90;99.90
58413;DHT22;44209;52.952;6.790;2022-12-08T13:18:28;5.00;99.90
58413;DHT22;44209;52.952;6.790;2022-12-08T13:21:09;5.10;99.90
58413;DHT22;44209;52.952;6.790;2022-12-08T13:26:23;5.30;99.90
58413;DHT22;44209;52.952;6.790;2022-12-08T13:31:46;5.30;99.90
58413;DHT22;44209;52.952;6.790;2022-12-08T13:34:23;5.30;99.90
58413;DHT22;44209;52.952;6.790;2022-12-08T13:37:01;5.30;99.90
58413;DHT22;44209;52.952;6.790;2022-12-08T13:39:55;5.30;99.90
58413;DHT22;44209;52.952;6.790;2022-12-08T13:42:41;5.30;99.90
58413;DHT22;44209;52.952;6.790;2022-12-08T13:52:44;5.00;99.90
58413;DHT22;44209;52.952;6.790;2022-12-08T13:55:20;5.00;99.90
58413;DHT22;44209;52.952;6.790;2022-12-08T13:57:48;5.00;99.90
58413;DHT22;44209;52.952;6.790;2022-12-08T14:00:19;5.00;99.90
58413;DHT22;44209;52.952;6.790;2022-12-08T14:02:47;4.90;99.90
58413;DHT22;44209;52.952;6.790;2022-12-08T14:05:13;4.90;99.90
58413;DHT22;44209;52.952;6.790;2022-12-08T14:07:40;4.90;99.90
58413;DHT22;44209;52.952;6.790;2022-12-08T14:10:08;4.80;99.90
58413;DHT22;44209;52.952;6.790;2022-12-08T14:12:34;4.80;99.90
58413;DHT22;44209;52.952;6.790;2022-12-08T14:15:04;4.70;99.90
58413;DHT22;44209;52.952;6.790;2022-12-08T14:17:30;4.60;99.90
58413;DHT22;44209;52.952;6.790;2022-12-08T14:20:01;4.60;99.90
58413;DHT22;44209;52.952;6.790;2022-12-08T14:22:35;4.50;99.90
58413;DHT22;44209;52.952;6.790;2022-12-08T14:25:01;4.50;99.90
58413;DHT22;44209;52.952;6.790;2022-12-08T14:27:32;4.40;99.90
58413;DHT22;44209;52.952;6.790;2022-12-08T14:30:01;4.40;99.90
58413;DHT22;44209;52.952;6.790;2022-12-08T14:37:43;4.20;99.90
58413;DHT22;44209;52.952;6.790;2022-12-08T14:40:41;4.10;99.90
58413;DHT22;44209;52.952;6.790;2022-12-08T14:56:30;3.60;99.90
58413;DHT22;44209;52.952;6.790;2022-12-08T15:01:38;3.50;99.90
58413;DHT22;44209;52.952;6.790;2022-12-08T15:04:11;3.40;99.90
58413;DHT22;44209;52.952;6.790;2022-12-08T15:07:12;3.40;99.90
58413;DHT22;44209;52.952;6.790;2022-12-08T15:09:45;3.20;99.90
58413;DHT22;44209;52.952;6.790;2022-12-08T15:14:42;3.10;99.90
58413;DHT22;44209;52.952;6.790;2022-12-08T15:20:05;2.90;99.90
58413;DHT22;44209;52.952;6.790;2022-12-08T15:22:31;2.80;99.90
58413;DHT22;44209;52.952;6.790;2022-12-08T15:24:57;2.80;99.90
58413;DHT22;44209;52.952;6.790;2022-12-08T15:27:24;2.70;99.90
58413;DHT22;44209;52.952;6.790;2022-12-08T15:29:50;2.70;99.90
58413;DHT22;44209;52.952;6.790;2022-12-08T15:32:19;2.60;99.90
58413;DHT22;44209;52.952;6.790;2022-12-08T15:34:45;2.50;99.90
58413;DHT22;44209;52.952;6.790;2022-12-08T15:37:22;2.50;99.90
58413;DHT22;44209;52.952;6.790;2022-12-08T15:39:48;2.40;99.90
58413;DHT22;44209;52.952;6.790;2022-12-08T15:42:14;2.40;99.90
58413;DHT22;44209;52.952;6.790;2022-12-08T15:44:40;2.30;99.90
58413;DHT22;44209;52.952;6.790;2022-12-08T15:47:21;2.20;99.90
58413;DHT22;44209;52.952;6.790;2022-12-08T15:49:47;2.20;99.90
58413;DHT22;44209;52.952;6.790;2022-12-08T15:52:22;2.10;99.90
58413;DHT22;44209;52.952;6.790;2022-12-08T15:54:49;2.20;99.90
58413;DHT22;44209;52.952;6.790;2022-12-08T15:57:25;2.10;99.90
58413;DHT22;44209;52.952;6.790;2022-12-08T15:59:51;2.10;99.90
58413;DHT22;44209;52.952;6.790;2022-12-08T16:02:18;2.10;99.90
58413;DHT22;44209;52.952;6.790;2022-12-08T16:04:44;2.10;99.90
58413;DHT22;44209;52.952;6.790;2022-12-08T16:07:21;2.00;99.90
58413;DHT22;44209;52.952;6.790;2022-12-08T16:09:47;2.00;99.90
58413;DHT22;44209;52.952;6.790;2022-12-08T16:12:24;2.00;99.90
58413;DHT22;44209;52.952;6.790;2022-12-08T16:15:10;2.10;99.90
58413;DHT22;44209;52.952;6.790;2022-12-08T16:17:38;2.10;99.90
58413;DHT22;44209;52.952;6.790;2022-12-08T16:20:09;2.10;99.90
58413;DHT22;44209;52.952;6.790;2022-12-08T16:22:36;2.10;99.90
58413;DHT22;44209;52.952;6.790;2022-12-08T16:25:01;2.10;99.90
58413;DHT22;44209;52.952;6.790;2022-12-08T16:27:32;2.00;99.90
58413;DHT22;44209;52.952;6.790;2022-12-08T16:29:59;2.00;99.90
58413;DHT22;44209;52.952;6.790;2022-12-08T16:32:26;2.00;99.90
58413;DHT22;44209;52.952;6.790;2022-12-08T16:34:52;2.00;99.90
58413;DHT22;44209;52.952;6.790;2022-12-08T16:37:21;1.90;99.90
58413;DHT22;44209;52.952;6.790;2022-12-08T16:39:48;1.90;99.90
58413;DHT22;44209;52.952;6.790;2022-12-08T16:42:23;1.90;99.90
58413;DHT22;44209;52.952;6.790;2022-12-08T16:45:25;1.90;99.90
58413;DHT22;44209;52.952;6.790;2022-12-08T16:48:00;1.80;99.90
58413;DHT22;44209;52.952;6.790;2022-12-08T16:50:31;1.80;99.90
58413;DHT22;44209;52.952;6.790;2022-12-08T16:53:00;1.80;99.90
58413;DHT22;44209;52.952;6.790;2022-12-08T16:55:26;1.80;99.90
58413;DHT22;44209;52.952;6.790;2022-12-08T16:57:52;1.80;99.90
58413;DHT22;44209;52.952;6.790;2022-12-08T17:00:21;1.80;99.90
58413;DHT22;44209;52.952;6.790;2022-12-08T17:02:47;1.90;99.90
58413;DHT22;44209;52.952;6.790;2022-12-08T17:05:14;1.90;99.90
58413;DHT22;44209;52.952;6.790;2022-12-08T17:07:41;1.90;99.90
58413;DHT22;44209;52.952;6.790;2022-12-08T17:10:10;1.90;99.90
58413;DHT22;44209;52.952;6.790;2022-12-08T17:12:36;1.90;99.90
58413;DHT22;44209;52.952;6.790;2022-12-08T17:15:11;1.80;99.90
58413;DHT22;44209;52.952;6.790;2022-12-08T17:17:37;1.90;99.90
58413;DHT22;44209;52.952;6.790;2022-12-08T17:20:11;1.80;99.90
58413;DHT22;44209;52.952;6.790;2022-12-08T17:22:37;1.80;99.90
58413;DHT22;44209;52.952;6.790;2022-12-08T17:25:04;1.70;99.90
58413;DHT22;44209;52.952;6.790;2022-12-08T17:27:31;1.70;99.90
58413;DHT22;44209;52.952;6.790;2022-12-08T17:29:57;1.70;99.90
58413;DHT22;44209;52.952;6.790;2022-12-08T17:32:23;1.70;99.90
58413;DHT22;44209;52.952;6.790;2022-12-08T17:34:49;1.70;99.90
58413;DHT22;44209;52.952;6.790;2022-12-08T17:37:15;1.80;99.90
58413;DHT22;44209;52.952;6.790;2022-12-08T17:39:41;1.80;99.90
58413;DHT22;44209;52.952;6.790;2022-12-08T17:42:07;1.90;99.90
58413;DHT22;44209;52.952;6.790;2022-12-08T17:44:33;1.90;99.90
58413;DHT22;44209;52.952;6.790;2022-12-08T17:47:00;1.90;99.90
58413;DHT22;44209;52.952;6.790;2022-12-08T17:49:28;2.00;99.90
58413;DHT22;44209;52.952;6.790;2022-12-08T17:51:56;1.90;99.90
58413;DHT22;44209;52.952;6.790;2022-12-08T17:54:23;2.00;99.90
58413;DHT22;44209;52.952;6.790;2022-12-08T17:56:50;2.00;99.90
58413;DHT22;44209;52.952;6.790;2022-12-08T17:59:16;2.10;99.90
58413;DHT22;44209;52.952;6.790;2022-12-08T18:01:42;2.10;99.90
58413;DHT22;44209;52.952;6.790;2022-12-08T18:04:09;2.20;99.90
58413;DHT22;44209;52.952;6.790;2022-12-08T18:06:35;2.20;99.90
58413;DHT22;44209;52.952;6.790;2022-12-08T18:09:02;2.20;99.90
58413;DHT22;44209;52.952;6.790;2022-12-08T18:11:29;2.30;99.90
58413;DHT22;44209;52.952;6.790;2022-12-08T18:13:56;2.20;99.90
58413;DHT22;44209;52.952;6.790;2022-12-08T18:16:24;2.20;99.90
58413;DHT22;44209;52.952;6.790;2022-12-08T18:18:50;2.20;99.90
58413;DHT22;44209;52.952;6.790;2022-12-08T18:21:16;2.20;99.90
58413;DHT22;44209;52.952;6.790;2022-12-08T18:23:43;2.10;99.90